Time;durP1;ratioP1;P1;durP2;ratioP2;P2;SDS_P1;SDS_P2;PMS_P1;PMS_P2;Temp;Humidity;BMP_temperature;BMP_pressure;BME280_temperature;BME280_humidity;BME280_pressure;Samples;Min_cycle;Max_cycle;Signal;HPM_P1;HPM_P2
2021/07/31 00:00:18;;;;;;;3.07;1.30;;;18.30;99.90;;;;;;5025704;28;20187;-36
2021/07/31 00:02:44;;;;;;;4.30;1.43;;;18.30;99.90;;;;;;5036101;28;20491;-35
2021/07/31 00:05:10;;;;;;;4.57;1.70;;;18.30;99.90;;;;;;5044371;28;20849;-35
2021/07/31 00:07:36;;;;;;;4.23;1.70;;;18.20;99.90;;;;;;5028992;28;20500;-35
2021/07/31 00:10:02;;;;;;;5.70;1.40;;;18.10;99.90;;;;;;5029259;28;20202;-36
2021/07/31 00:12:28;;;;;;;5.43;1.60;;;18.00;99.90;;;;;;5025648;28;20719;-36
2021/07/31 00:14:54;;;;;;;3.97;1.70;;;18.00;99.90;;;;;;5025733;28;20426;-36
2021/07/31 00:17:19;;;;;;;2.07;1.27;;;18.00;99.90;;;;;;5030622;28;20178;-36
2021/07/31 00:19:45;;;;;;;3.13;1.33;;;18.00;99.90;;;;;;5042596;28;20183;-36
2021/07/31 00:22:11;;;;;;;3.27;1.47;;;18.00;99.90;;;;;;5026332;28;20271;-36
2021/07/31 00:24:36;;;;;;;4.60;2.10;;;18.00;99.90;;;;;;5033554;28;20668;-36
2021/07/31 00:27:02;;;;;;;2.73;1.33;;;18.00;99.90;;;;;;5028647;28;20608;-36
2021/07/31 00:29:28;;;;;;;4.00;1.50;;;18.00;99.90;;;;;;5029423;28;20186;-36
2021/07/31 00:31:54;;;;;;;2.40;1.40;;;18.00;99.90;;;;;;5030756;28;20186;-35
2021/07/31 00:34:19;;;;;;;2.27;1.73;;;18.00;99.90;;;;;;5039359;28;20668;-35
2021/07/31 00:36:45;;;;;;;2.70;1.70;;;18.00;99.90;;;;;;5026372;28;20716;-35
2021/07/31 00:39:10;;;;;;;5.57;2.03;;;17.90;99.90;;;;;;5028971;28;20580;-36
2021/07/31 00:41:36;;;;;;;4.00;1.50;;;18.00;99.90;;;;;;5029022;28;20225;-36
2021/07/31 00:44:02;;;;;;;5.43;1.70;;;18.00;99.90;;;;;;5025463;28;20264;-36
2021/07/31 00:46:28;;;;;;;3.17;1.40;;;17.90;99.90;;;;;;5028164;28;20248;-35
2021/07/31 00:48:55;;;;;;;5.40;2.03;;;17.90;99.90;;;;;;5036748;28;20512;-36
2021/07/31 00:51:20;;;;;;;2.53;1.50;;;17.90;99.90;;;;;;5040380;28;20229;-36
2021/07/31 00:53:48;;;;;;;4.13;1.50;;;17.90;99.90;;;;;;5025207;28;20840;-36
2021/07/31 00:56:14;;;;;;;3.10;1.50;;;18.00;99.90;;;;;;5027864;28;20194;-36
2021/07/31 00:58:41;;;;;;;2.17;1.43;;;18.00;99.90;;;;;;5025031;28;20461;-36
2021/07/31 01:01:06;;;;;;;2.03;1.50;;;18.00;99.90;;;;;;5031321;28;20796;-35
2021/07/31 01:03:32;;;;;;;2.47;1.37;;;17.90;99.90;;;;;;5033353;28;20413;-36
2021/07/31 01:05:58;;;;;;;3.73;1.70;;;17.90;99.90;;;;;;5033511;28;20183;-36
2021/07/31 01:08:24;;;;;;;2.97;2.00;;;17.80;99.90;;;;;;5028904;28;20275;-36
2021/07/31 01:10:50;;;;;;;2.63;1.70;;;17.80;99.90;;;;;;5038669;28;20986;-36
2021/07/31 01:13:16;;;;;;;3.63;1.43;;;17.80;99.90;;;;;;5029243;28;20436;-35
2021/07/31 01:16:08;;;;;;;5.10;2.00;;;17.80;99.90;;;;;;5029064;28;20429;-36
2021/07/31 01:18:34;;;;;;;3.53;1.60;;;17.90;99.90;;;;;;5034886;28;20468;-36
2021/07/31 01:21:00;;;;;;;5.07;2.17;;;17.90;99.90;;;;;;5030601;28;20504;-36
2021/07/31 01:23:26;;;;;;;2.97;1.50;;;17.90;99.90;;;;;;5027495;28;20892;-36
2021/07/31 01:25:52;;;;;;;5.53;2.20;;;17.90;99.90;;;;;;5036138;28;20260;-36
2021/07/31 01:28:17;;;;;;;2.80;1.60;;;17.80;99.90;;;;;;5028412;28;20217;-36
2021/07/31 01:30:44;;;;;;;2.83;1.50;;;17.90;99.90;;;;;;5036917;28;20670;-36
2021/07/31 01:33:09;;;;;;;4.20;2.30;;;17.90;99.90;;;;;;5038530;28;20431;-36
2021/07/31 01:35:35;;;;;;;5.80;1.40;;;17.90;99.90;;;;;;5043352;28;20424;-35
2021/07/31 01:38:03;;;;;;;4.27;1.73;;;18.00;99.90;;;;;;5034414;28;20558;-36
2021/07/31 01:40:29;;;;;;;4.00;1.60;;;18.00;99.90;;;;;;5032013;28;20194;-36
2021/07/31 01:42:56;;;;;;;4.83;1.60;;;17.90;99.90;;;;;;5028576;28;20436;-36
2021/07/31 01:45:26;;;;;;;3.20;1.60;;;17.90;99.90;;;;;;5028789;28;20264;-35
2021/07/31 01:47:51;;;;;;;2.70;1.70;;;17.90;99.90;;;;;;5035333;28;20432;-37
2021/07/31 01:50:17;;;;;;;1.70;1.30;;;17.90;99.90;;;;;;5043779;28;20440;-36
2021/07/31 01:52:44;;;;;;;2.50;1.70;;;17.80;99.90;;;;;;5027235;28;20199;-36
2021/07/31 01:55:10;;;;;;;2.80;1.80;;;17.80;99.90;;;;;;5034589;28;20424;-36
2021/07/31 01:57:36;;;;;;;3.23;1.83;;;17.70;99.90;;;;;;5033369;28;20440;-36
2021/07/31 02:00:03;;;;;;;3.70;1.77;;;17.70;99.90;;;;;;5028310;28;20433;-35
2021/07/31 02:02:29;;;;;;;4.60;1.83;;;17.60;99.90;;;;;;5035130;28;20720;-36
2021/07/31 02:04:55;;;;;;;4.83;2.53;;;17.70;99.90;;;;;;5037707;28;20509;-36
2021/07/31 02:07:20;;;;;;;2.47;1.43;;;17.70;99.90;;;;;;5030350;28;20906;-36
2021/07/31 02:09:46;;;;;;;2.93;1.73;;;17.70;99.90;;;;;;5028779;28;20201;-35
2021/07/31 02:12:12;;;;;;;2.63;2.00;;;17.70;99.90;;;;;;5034104;28;20507;-36
2021/07/31 02:14:37;;;;;;;2.47;1.57;;;17.70;99.90;;;;;;5027854;28;20276;-36
2021/07/31 02:17:03;;;;;;;3.00;1.70;;;17.70;99.90;;;;;;5034948;28;20200;-36
2021/07/31 02:19:30;;;;;;;4.07;2.20;;;17.70;99.90;;;;;;5036525;28;20624;-35
2021/07/31 02:21:56;;;;;;;4.90;2.07;;;17.60;99.90;;;;;;5046255;28;20192;-36
2021/07/31 02:24:22;;;;;;;3.53;1.80;;;17.70;99.90;;;;;;5028090;28;20433;-36
2021/07/31 02:26:48;;;;;;;4.47;2.40;;;17.70;99.90;;;;;;5032076;28;20440;-36
2021/07/31 02:29:15;;;;;;;3.83;2.30;;;17.70;99.90;;;;;;5030846;28;20428;-36
2021/07/31 02:31:40;;;;;;;2.37;2.13;;;17.60;99.90;;;;;;5034164;28;20244;-36
2021/07/31 02:34:06;;;;;;;4.00;2.00;;;17.70;99.90;;;;;;5044896;28;20505;-36
2021/07/31 02:36:32;;;;;;;5.40;2.17;;;17.60;99.90;;;;;;5043415;28;20189;-36
2021/07/31 02:38:57;;;;;;;2.70;2.20;;;17.70;99.90;;;;;;5027451;28;20226;-36
2021/07/31 02:41:23;;;;;;;6.13;2.40;;;17.70;99.90;;;;;;5028533;28;20405;-36
2021/07/31 02:43:49;;;;;;;3.80;1.93;;;17.70;99.90;;;;;;5026104;28;20212;-37
2021/07/31 02:46:14;;;;;;;2.57;2.10;;;17.60;99.90;;;;;;5027320;28;20190;-35
2021/07/31 02:48:40;;;;;;;2.23;1.87;;;17.60;99.90;;;;;;5035220;28;20528;-36
2021/07/31 02:51:08;;;;;;;2.50;1.57;;;17.60;99.90;;;;;;5042096;28;20226;-36
2021/07/31 02:53:34;;;;;;;4.00;2.13;;;17.60;99.90;;;;;;5034121;28;20231;-37
2021/07/31 02:56:00;;;;;;;2.60;1.67;;;17.50;99.90;;;;;;5047639;28;20431;-35
2021/07/31 02:58:26;;;;;;;3.70;1.90;;;17.50;99.90;;;;;;5026897;28;20469;-36
2021/07/31 03:00:52;;;;;;;4.03;2.00;;;17.40;99.90;;;;;;5027464;28;20232;-36
2021/07/31 03:03:18;;;;;;;6.30;2.43;;;17.40;99.90;;;;;;5033415;28;20194;-35
2021/07/31 03:05:53;;;;;;;2.57;1.87;;;17.40;99.90;;;;;;5041132;28;20435;-36
2021/07/31 03:08:18;;;;;;;6.00;2.30;;;17.40;99.90;;;;;;5037510;28;20289;-36
2021/07/31 03:10:44;;;;;;;7.17;1.83;;;17.40;99.90;;;;;;5032077;28;20598;-36
2021/07/31 03:13:10;;;;;;;4.47;2.23;;;17.40;99.90;;;;;;5026973;28;20576;-36
2021/07/31 03:15:35;;;;;;;2.83;1.83;;;17.40;99.90;;;;;;5027146;28;20202;-36
2021/07/31 03:18:01;;;;;;;2.80;2.40;;;17.40;99.90;;;;;;5035808;28;20209;-36
2021/07/31 03:20:27;;;;;;;3.73;1.97;;;17.40;99.90;;;;;;5043935;28;20190;-36
2021/07/31 03:22:52;;;;;;;2.47;1.57;;;17.40;99.90;;;;;;5035056;28;20186;-36
2021/07/31 03:25:18;;;;;;;3.90;1.93;;;17.50;99.90;;;;;;5027077;28;20294;-36
2021/07/31 03:27:43;;;;;;;2.70;2.07;;;17.50;99.90;;;;;;5026772;28;20376;-36
2021/07/31 03:30:10;;;;;;;6.40;2.70;;;17.60;99.90;;;;;;5034046;28;20220;-36
2021/07/31 03:32:35;;;;;;;3.80;2.20;;;17.60;99.90;;;;;;5025888;28;20269;-36
2021/07/31 03:35:01;;;;;;;4.33;2.93;;;17.50;99.90;;;;;;5027635;28;20807;-35
2021/07/31 03:37:27;;;;;;;5.30;2.37;;;17.40;99.90;;;;;;5026716;28;20191;-36
2021/07/31 03:39:53;;;;;;;3.40;2.20;;;17.40;99.90;;;;;;5026715;28;20581;-36
2021/07/31 03:42:18;;;;;;;2.90;2.20;;;17.30;99.90;;;;;;5035229;28;20200;-35
2021/07/31 03:44:44;;;;;;;4.00;2.53;;;17.40;99.90;;;;;;5026243;28;20596;-36
2021/07/31 03:47:09;;;;;;;2.97;1.80;;;17.30;99.90;;;;;;5025487;28;20726;-36
2021/07/31 03:49:35;;;;;;;4.20;2.03;;;17.40;99.90;;;;;;5036009;28;20198;-36
2021/07/31 03:52:01;;;;;;;3.30;2.30;;;17.40;99.90;;;;;;5036984;28;20704;-36
2021/07/31 03:54:26;;;;;;;3.73;2.27;;;17.40;99.90;;;;;;5025795;28;20716;-36
2021/07/31 03:56:52;;;;;;;3.83;2.17;;;17.40;99.90;;;;;;5030776;28;20225;-36
2021/07/31 03:59:17;;;;;;;4.87;2.07;;;17.50;99.90;;;;;;5025993;28;20680;-36
2021/07/31 04:01:43;;;;;;;3.67;2.10;;;17.50;99.90;;;;;;5024676;28;20202;-36
2021/07/31 04:04:09;;;;;;;2.93;2.03;;;17.50;99.90;;;;;;5030471;28;20817;-36
2021/07/31 04:06:35;;;;;;;3.27;2.40;;;17.40;99.90;;;;;;5039287;28;20416;-35
2021/07/31 04:09:00;;;;;;;4.40;2.40;;;17.40;99.90;;;;;;5030705;28;20210;-36
2021/07/31 04:11:26;;;;;;;4.10;2.20;;;17.50;99.90;;;;;;5026462;28;20209;-36
2021/07/31 04:13:54;;;;;;;3.77;1.83;;;17.50;99.90;;;;;;5025482;28;20500;-36
2021/07/31 04:16:19;;;;;;;4.57;2.57;;;17.50;99.90;;;;;;5026195;28;20206;-36
2021/07/31 04:18:45;;;;;;;5.70;1.97;;;17.50;99.90;;;;;;5032003;28;20895;-36
2021/07/31 04:21:11;;;;;;;5.00;2.40;;;17.40;99.90;;;;;;5040774;28;20334;-36
2021/07/31 04:23:36;;;;;;;2.70;2.00;;;17.40;99.90;;;;;;5025415;28;20379;-36
2021/07/31 04:26:16;;;;;;;3.10;2.57;;;17.30;99.90;;;;;;5031823;28;20202;-36
2021/07/31 04:28:42;;;;;;;5.60;1.83;;;17.30;99.90;;;;;;5028758;28;20626;-36
2021/07/31 04:31:12;;;;;;;2.80;2.00;;;17.30;99.90;;;;;;5035025;28;20503;-37
2021/07/31 04:33:39;;;;;;;5.40;2.60;;;17.30;99.90;;;;;;5028749;28;20444;-35
2021/07/31 04:36:05;;;;;;;3.77;1.60;;;17.30;99.90;;;;;;5035207;28;20515;-36
2021/07/31 04:38:31;;;;;;;2.43;2.20;;;17.30;99.90;;;;;;5025818;28;20510;-35
2021/07/31 04:40:58;;;;;;;5.60;2.67;;;17.30;99.90;;;;;;5029572;28;20428;-36
2021/07/31 04:43:23;;;;;;;3.37;2.27;;;17.30;99.90;;;;;;5028295;28;20850;-36
2021/07/31 04:45:49;;;;;;;5.90;2.20;;;17.30;99.90;;;;;;5025604;28;20422;-35
2021/07/31 04:48:15;;;;;;;5.60;2.23;;;17.20;99.90;;;;;;5025331;28;20197;-36
2021/07/31 04:50:40;;;;;;;2.43;2.00;;;17.30;99.90;;;;;;5042717;28;20189;-36
2021/07/31 04:53:06;;;;;;;3.63;2.00;;;17.30;99.90;;;;;;5039061;28;20233;-35
2021/07/31 04:55:32;;;;;;;4.43;2.20;;;17.30;99.90;;;;;;5025376;28;20545;-35
2021/07/31 04:57:57;;;;;;;2.60;2.40;;;17.30;99.90;;;;;;5027915;28;20626;-36
2021/07/31 05:00:23;;;;;;;3.63;2.70;;;17.20;99.90;;;;;;5022769;28;20638;-36
2021/07/31 05:02:49;;;;;;;6.73;2.40;;;17.20;99.90;;;;;;5027981;28;20592;-36
2021/07/31 05:05:14;;;;;;;3.20;2.13;;;17.20;99.90;;;;;;5036017;28;20190;-36
2021/07/31 05:07:41;;;;;;;5.07;2.20;;;17.20;99.90;;;;;;5033549;28;20445;-36
2021/07/31 05:10:07;;;;;;;3.83;2.17;;;17.20;99.90;;;;;;5025577;28;20375;-36
2021/07/31 05:12:33;;;;;;;3.90;2.40;;;17.20;99.90;;;;;;5035548;28;20520;-36
2021/07/31 05:14:59;;;;;;;6.33;2.60;;;17.20;99.90;;;;;;5023881;28;20796;-35
2021/07/31 05:17:24;;;;;;;3.97;2.40;;;17.20;99.90;;;;;;5024743;28;20190;-35
2021/07/31 05:19:50;;;;;;;2.70;2.30;;;17.30;99.90;;;;;;5036115;28;20551;-36
2021/07/31 05:22:16;;;;;;;3.80;2.50;;;17.30;99.90;;;;;;5036209;28;20210;-36
2021/07/31 05:24:42;;;;;;;2.93;2.33;;;17.30;99.90;;;;;;5024907;28;20236;-36
2021/07/31 05:27:08;;;;;;;3.30;2.13;;;17.30;99.90;;;;;;5030738;28;20453;-36
2021/07/31 05:29:34;;;;;;;2.87;1.90;;;17.20;99.90;;;;;;5029545;28;20996;-36
2021/07/31 05:32:00;;;;;;;3.70;2.20;;;17.20;99.90;;;;;;5026999;28;20206;-35
2021/07/31 05:34:26;;;;;;;3.60;1.97;;;17.20;99.90;;;;;;5031481;28;20493;-36
2021/07/31 05:36:52;;;;;;;6.50;2.67;;;17.30;99.90;;;;;;5032536;28;20949;-36
2021/07/31 05:39:17;;;;;;;4.10;3.10;;;17.30;99.90;;;;;;5032802;28;20228;-36
2021/07/31 05:41:43;;;;;;;4.83;2.33;;;17.30;99.90;;;;;;5026254;28;20190;-36
2021/07/31 05:44:09;;;;;;;2.80;2.60;;;17.30;99.90;;;;;;5024716;28;20282;-36
2021/07/31 05:46:34;;;;;;;3.17;2.03;;;17.30;99.90;;;;;;5027944;28;20210;-35
2021/07/31 05:49:00;;;;;;;2.80;2.53;;;17.30;99.90;;;;;;5035747;28;20190;-35
2021/07/31 05:51:26;;;;;;;3.83;2.60;;;17.30;99.90;;;;;;5031596;28;20205;-35
2021/07/31 05:53:52;;;;;;;6.20;2.30;;;17.20;99.90;;;;;;5030338;28;20595;-36
2021/07/31 05:56:18;;;;;;;3.60;2.40;;;17.20;99.90;;;;;;5030509;28;20436;-36
2021/07/31 05:58:43;;;;;;;3.63;2.47;;;17.20;99.90;;;;;;5035316;28;20297;-36
2021/07/31 06:01:10;;;;;;;5.77;2.53;;;17.20;99.90;;;;;;5027004;28;20202;-36
2021/07/31 06:03:37;;;;;;;2.53;2.33;;;17.20;99.90;;;;;;5027957;28;20183;-36
2021/07/31 06:06:03;;;;;;;7.67;2.90;;;17.20;99.90;;;;;;5031853;28;20417;-36
2021/07/31 06:08:29;;;;;;;3.23;2.47;;;17.20;99.90;;;;;;5030908;28;20480;-36
2021/07/31 06:11:06;;;;;;;3.40;2.27;;;17.20;99.90;;;;;;5028491;28;20794;-36
2021/07/31 06:13:33;;;;;;;2.87;2.40;;;17.20;99.90;;;;;;5035272;28;20464;-35
2021/07/31 06:15:58;;;;;;;6.17;2.20;;;17.20;99.90;;;;;;5028340;28;20524;-36
2021/07/31 06:18:24;;;;;;;4.80;2.77;;;17.20;99.90;;;;;;5027507;28;20556;-36
2021/07/31 06:20:51;;;;;;;3.53;2.43;;;17.20;99.90;;;;;;5037088;28;20537;-36
2021/07/31 06:23:18;;;;;;;4.73;2.63;;;17.20;99.90;;;;;;5044343;28;20702;-36
2021/07/31 06:25:44;;;;;;;3.80;2.37;;;17.20;99.90;;;;;;5028017;28;20425;-36
2021/07/31 06:28:10;;;;;;;4.67;2.03;;;17.20;99.90;;;;;;5030207;28;21005;-36
2021/07/31 06:30:36;;;;;;;4.33;2.80;;;17.30;99.90;;;;;;5035706;28;20524;-36
2021/07/31 06:33:01;;;;;;;2.43;2.20;;;17.40;99.90;;;;;;5027151;28;20576;-35
2021/07/31 06:35:27;;;;;;;4.23;2.73;;;17.50;99.90;;;;;;5038109;28;20509;-36
2021/07/31 06:37:53;;;;;;;6.43;2.40;;;17.50;99.90;;;;;;5039347;28;20387;-36
2021/07/31 06:40:19;;;;;;;2.70;2.37;;;17.50;99.90;;;;;;5028043;28;20388;-36
2021/07/31 06:42:45;;;;;;;4.60;2.60;;;17.50;99.90;;;;;;5038245;28;20428;-36
2021/07/31 06:45:11;;;;;;;4.03;3.23;;;17.60;99.90;;;;;;5028763;28;20190;-36
2021/07/31 06:47:36;;;;;;;5.27;2.70;;;17.80;99.90;;;;;;5027452;28;20725;-36
2021/07/31 06:50:05;;;;;;;4.77;2.70;;;17.90;99.90;;;;;;5030816;28;20436;-36
2021/07/31 06:52:30;;;;;;;2.83;2.47;;;18.00;99.90;;;;;;5036789;28;20436;-39
2021/07/31 06:54:56;;;;;;;3.93;2.20;;;17.90;99.90;;;;;;5027497;28;20764;-40
2021/07/31 06:57:22;;;;;;;3.73;2.63;;;17.90;99.90;;;;;;5032799;28;20699;-40
2021/07/31 06:59:47;;;;;;;3.00;2.40;;;18.00;99.90;;;;;;5034634;28;20763;-40
2021/07/31 07:02:13;;;;;;;2.60;2.40;;;18.00;99.90;;;;;;5035642;28;20190;-41
2021/07/31 07:04:38;;;;;;;3.87;2.50;;;18.00;99.90;;;;;;5032832;28;20560;-42
2021/07/31 07:07:04;;;;;;;3.90;2.73;;;18.00;99.90;;;;;;5040161;28;20190;-42
2021/07/31 07:09:30;;;;;;;4.87;3.40;;;17.90;99.90;;;;;;5041330;28;20315;-41
2021/07/31 07:11:56;;;;;;;6.27;2.67;;;17.90;99.90;;;;;;5029920;28;20433;-41
2021/07/31 07:14:22;;;;;;;3.10;2.80;;;17.90;99.90;;;;;;5028390;28;20655;-41
2021/07/31 07:16:47;;;;;;;3.20;2.50;;;17.90;99.90;;;;;;5025680;28;20437;-42
2021/07/31 07:19:14;;;;;;;4.30;2.67;;;18.00;99.90;;;;;;5027722;28;20249;-40
2021/07/31 07:21:40;;;;;;;3.87;2.90;;;18.10;99.90;;;;;;5042888;28;20450;-40
2021/07/31 07:24:05;;;;;;;4.43;2.80;;;18.20;99.90;;;;;;5035954;28;20202;-39
2021/07/31 07:26:31;;;;;;;3.43;3.00;;;18.30;99.90;;;;;;5025604;28;20218;-40
2021/07/31 07:28:57;;;;;;;4.10;2.80;;;18.30;99.90;;;;;;5039590;28;20198;-42
2021/07/31 07:31:22;;;;;;;4.23;2.73;;;18.10;99.90;;;;;;5039261;28;20197;-42
2021/07/31 07:33:48;;;;;;;5.87;2.13;;;18.00;99.90;;;;;;5039581;28;20684;-41
2021/07/31 07:36:16;;;;;;;7.73;3.20;;;17.90;99.90;;;;;;5034126;28;20301;-39
2021/07/31 07:38:42;;;;;;;6.70;2.60;;;17.80;99.90;;;;;;5035860;28;20210;-40
2021/07/31 07:41:13;;;;;;;4.60;2.70;;;17.80;99.90;;;;;;5026657;28;20487;-40
2021/07/31 07:43:39;;;;;;;3.53;2.40;;;17.90;99.90;;;;;;5032892;28;20918;-42
2021/07/31 07:46:05;;;;;;;4.70;2.60;;;18.10;99.90;;;;;;5027288;28;20479;-43
2021/07/31 07:48:30;;;;;;;2.97;2.27;;;18.20;99.90;;;;;;5025575;28;20206;-38
2021/07/31 07:50:56;;;;;;;5.73;2.47;;;18.20;99.90;;;;;;5035264;28;20971;-38
2021/07/31 07:53:22;;;;;;;3.87;2.40;;;18.20;99.90;;;;;;5039948;28;20212;-40
2021/07/31 07:55:48;;;;;;;3.00;2.20;;;18.10;99.90;;;;;;5033729;28;20452;-38
2021/07/31 07:58:13;;;;;;;4.13;1.97;;;18.10;99.90;;;;;;5029625;28;20221;-39
2021/07/31 08:00:42;;;;;;;3.50;2.30;;;18.10;99.90;;;;;;5026368;28;20647;-39
2021/07/31 08:03:08;;;;;;;2.83;2.20;;;18.20;99.90;;;;;;5025591;28;20678;-39
2021/07/31 08:05:37;;;;;;;3.60;2.57;;;18.20;99.90;;;;;;5031068;28;20515;-41
2021/07/31 08:08:04;;;;;;;2.87;2.00;;;18.30;99.90;;;;;;5033542;28;20240;-39
2021/07/31 08:10:30;;;;;;;2.33;2.13;;;18.30;99.90;;;;;;5026409;28;20978;-38
2021/07/31 08:12:56;;;;;;;3.63;2.47;;;18.40;99.90;;;;;;5031876;28;20569;-38
2021/07/31 08:15:21;;;;;;;2.57;2.37;;;18.40;99.90;;;;;;5030112;28;20413;-38
2021/07/31 08:17:47;;;;;;;3.30;2.50;;;18.40;99.90;;;;;;5028126;28;20500;-41
2021/07/31 08:20:13;;;;;;;5.90;2.40;;;18.50;99.90;;;;;;5035849;28;20252;-38
2021/07/31 08:22:39;;;;;;;2.47;2.27;;;18.50;99.90;;;;;;5038005;28;20190;-39
2021/07/31 08:25:05;;;;;;;2.83;2.30;;;18.60;99.90;;;;;;5032329;28;20606;-39
2021/07/31 08:27:31;;;;;;;3.13;2.40;;;18.60;99.90;;;;;;5032790;28;20213;-40
2021/07/31 08:29:56;;;;;;;3.37;2.63;;;18.60;99.90;;;;;;5034049;28;20447;-41
2021/07/31 08:32:23;;;;;;;3.70;1.80;;;18.60;99.90;;;;;;5032081;28;20425;-41
2021/07/31 08:34:50;;;;;;;3.20;2.53;;;18.70;99.90;;;;;;5030546;28;20191;-38
2021/07/31 08:37:17;;;;;;;5.17;2.40;;;18.80;99.90;;;;;;5035579;28;20412;-38
2021/07/31 08:39:43;;;;;;;7.07;2.70;;;18.90;99.90;;;;;;5037146;28;20456;-38
2021/07/31 08:42:12;;;;;;;2.40;2.20;;;19.10;99.90;;;;;;5036467;28;20425;-38
2021/07/31 08:44:39;;;;;;;2.60;2.07;;;19.10;99.90;;;;;;5030614;28;20312;-38
2021/07/31 08:47:06;;;;;;;2.47;2.27;;;19.10;99.90;;;;;;5030756;28;20817;-39
2021/07/31 08:49:34;;;;;;;2.33;2.00;;;19.00;99.90;;;;;;5030367;28;20468;-39
2021/07/31 08:52:01;;;;;;;3.17;2.30;;;19.00;99.90;;;;;;5035383;28;20428;-38
2021/07/31 08:54:27;;;;;;;4.30;2.50;;;19.00;99.90;;;;;;5036207;28;20444;-44
2021/07/31 08:56:54;;;;;;;2.60;2.40;;;19.00;99.90;;;;;;5034345;28;20523;-40
2021/07/31 08:59:27;;;;;;;3.23;2.40;;;19.10;99.90;;;;;;5037789;28;20263;-40
2021/07/31 09:01:54;;;;;;;2.87;2.20;;;19.10;99.90;;;;;;5035368;28;20421;-42
2021/07/31 09:04:19;;;;;;;3.33;2.20;;;19.20;99.90;;;;;;5027400;28;20423;-39
2021/07/31 09:06:45;;;;;;;3.67;2.50;;;19.20;99.90;;;;;;5031626;28;20417;-38
2021/07/31 09:09:12;;;;;;;2.63;2.40;;;19.30;99.90;;;;;;5036682;28;20213;-39
2021/07/31 09:12:14;;;;;;;2.73;2.37;;;19.30;99.90;;;;;;5035410;28;20576;-38
2021/07/31 09:14:49;;;;;;;4.63;3.00;;;19.40;99.90;;;;;;4990731;28;20434;-40
2021/07/31 09:17:26;;;;;;;6.93;2.37;;;19.40;99.90;;;;;;5019173;28;20952;-40
2021/07/31 09:19:54;;;;;;;3.23;2.37;;;19.50;99.90;;;;;;5022400;28;20530;-40
2021/07/31 09:22:20;;;;;;;4.20;2.23;;;19.50;99.90;;;;;;5039291;28;20409;-39
2021/07/31 09:25:07;;;;;;;3.10;2.27;;;19.40;99.90;;;;;;5044938;28;21177;-41
2021/07/31 09:27:32;;;;;;;3.43;1.87;;;19.30;99.90;;;;;;5029250;28;20584;-39
2021/07/31 09:30:05;;;;;;;2.77;2.30;;;19.20;99.90;;;;;;5040583;28;20432;-38
2021/07/31 09:32:42;;;;;;;3.87;2.60;;;19.20;99.90;;;;;;5029499;28;20324;-39
2021/07/31 09:35:20;;;;;;;2.47;2.10;;;19.20;99.90;;;;;;5029554;28;20447;-41
2021/07/31 09:37:52;;;;;;;7.27;2.40;;;19.30;99.90;;;;;;5038664;28;20431;-39
2021/07/31 09:40:36;;;;;;;3.40;2.40;;;19.20;99.90;;;;;;5038537;28;20472;-40
2021/07/31 09:43:31;;;;;;;3.10;2.80;;;19.20;99.90;;;;;;5030295;28;20838;-40
2021/07/31 09:45:56;;;;;;;3.10;2.40;;;19.10;99.90;;;;;;5031786;28;20837;-39
2021/07/31 09:48:22;;;;;;;4.50;2.37;;;19.20;99.90;;;;;;5028334;28;20523;-38
2021/07/31 09:50:48;;;;;;;4.17;2.70;;;19.10;99.90;;;;;;5028732;28;20281;-39
2021/07/31 09:53:25;;;;;;;3.13;2.30;;;19.10;99.90;;;;;;5029439;28;20194;-40
2021/07/31 09:55:56;;;;;;;3.23;2.50;;;19.00;99.90;;;;;;5030752;28;20870;-41
2021/07/31 09:58:25;;;;;;;5.37;2.70;;;19.00;99.90;;;;;;5030960;28;21058;-41
2021/07/31 10:00:54;;;;;;;4.10;2.77;;;19.00;99.90;;;;;;5032123;28;20441;-38
2021/07/31 10:03:20;;;;;;;2.37;2.10;;;19.00;99.90;;;;;;5028416;28;20790;-39
2021/07/31 10:05:48;;;;;;;2.33;2.07;;;19.10;99.90;;;;;;5042554;28;20505;-39
2021/07/31 10:08:14;;;;;;;3.43;2.60;;;19.20;99.90;;;;;;5034454;28;20440;-40
2021/07/31 10:10:40;;;;;;;2.70;2.10;;;19.30;99.90;;;;;;5045421;28;20905;-38
2021/07/31 10:13:06;;;;;;;2.57;2.30;;;19.20;99.90;;;;;;5028144;28;20485;-42
2021/07/31 10:15:32;;;;;;;3.20;2.20;;;19.10;99.90;;;;;;5032803;28;20496;-38
2021/07/31 10:17:59;;;;;;;3.50;3.20;;;19.10;99.90;;;;;;5028120;28;20191;-39
2021/07/31 10:20:30;;;;;;;3.43;2.10;;;19.00;99.90;;;;;;5028818;28;20430;-39
2021/07/31 10:22:56;;;;;;;3.10;2.50;;;19.00;99.90;;;;;;5042065;28;20426;-40
2021/07/31 10:25:23;;;;;;;3.10;2.37;;;19.10;99.90;;;;;;5035856;28;20436;-39
2021/07/31 10:27:50;;;;;;;3.00;2.50;;;19.10;99.90;;;;;;5028016;28;20414;-39
2021/07/31 10:30:33;;;;;;;2.90;2.30;;;19.20;99.90;;;;;;5033639;28;20433;-38
2021/07/31 10:32:59;;;;;;;3.50;2.40;;;19.20;99.90;;;;;;5029085;28;20956;-39
2021/07/31 10:35:25;;;;;;;4.70;2.70;;;19.20;99.90;;;;;;5029509;28;20444;-39
2021/07/31 10:37:52;;;;;;;4.00;2.63;;;19.20;99.90;;;;;;5038753;28;20943;-38
2021/07/31 10:40:30;;;;;;;2.70;2.50;;;19.30;99.90;;;;;;5035183;28;20195;-41
2021/07/31 10:42:55;;;;;;;4.30;2.33;;;19.50;99.90;;;;;;5029518;28;20421;-39
2021/07/31 10:45:29;;;;;;;3.10;2.80;;;19.60;99.90;;;;;;5036028;28;21096;-38
2021/07/31 10:48:02;;;;;;;3.13;2.60;;;19.70;99.90;;;;;;5030814;28;21074;-39
2021/07/31 10:50:29;;;;;;;6.30;3.00;;;19.80;99.90;;;;;;5035620;28;20490;-39
2021/07/31 10:53:10;;;;;;;2.90;2.40;;;20.00;99.90;;;;;;5045083;28;20481;-38
2021/07/31 10:55:36;;;;;;;6.60;3.50;;;20.20;99.90;;;;;;5039482;28;20452;-39
2021/07/31 10:58:11;;;;;;;4.00;2.73;;;20.30;99.90;;;;;;5035930;28;20510;-38
2021/07/31 11:00:39;;;;;;;3.93;2.63;;;20.30;99.90;;;;;;5037585;28;20395;-41
2021/07/31 11:03:28;;;;;;;4.60;2.60;;;20.30;99.90;;;;;;5036858;28;20431;-38
2021/07/31 11:06:06;;;;;;;2.63;2.43;;;20.20;99.90;;;;;;5037058;28;20468;-40
2021/07/31 11:08:33;;;;;;;2.40;2.20;;;20.00;99.90;;;;;;5036603;28;20439;-38
2021/07/31 11:11:13;;;;;;;3.70;2.60;;;20.10;99.90;;;;;;5034114;28;20841;-43
2021/07/31 11:13:39;;;;;;;3.00;2.40;;;20.20;99.90;;;;;;5027583;28;20789;-39
2021/07/31 11:16:07;;;;;;;2.50;2.30;;;20.20;99.90;;;;;;5027819;28;20432;-38
2021/07/31 11:18:36;;;;;;;2.33;2.03;;;20.30;99.90;;;;;;5026791;28;20216;-38
2021/07/31 11:21:27;;;;;;;2.63;2.20;;;20.30;99.90;;;;;;5030336;28;20489;-42
2021/07/31 11:24:05;;;;;;;2.33;2.13;;;20.30;99.90;;;;;;5040861;28;20472;-39
2021/07/31 11:26:41;;;;;;;3.90;2.10;;;20.20;99.90;;;;;;5030054;28;20576;-41
2021/07/31 11:29:28;;;;;;;3.27;2.30;;;20.10;99.90;;;;;;5027921;28;20569;-41
2021/07/31 11:32:03;;;;;;;2.43;2.00;;;20.20;99.90;;;;;;5025736;28;20437;-39
2021/07/31 11:34:39;;;;;;;2.50;2.10;;;20.20;99.90;;;;;;5026957;28;20501;-39
2021/07/31 11:37:06;;;;;;;2.00;1.90;;;20.30;99.90;;;;;;5030146;28;20435;-43
2021/07/31 11:39:31;;;;;;;2.40;1.63;;;20.30;99.90;;;;;;5039925;28;20460;-38
2021/07/31 11:42:00;;;;;;;2.50;1.70;;;20.20;99.90;;;;;;5017651;28;20433;-40
2021/07/31 11:44:33;;;;;;;1.93;1.83;;;20.20;99.90;;;;;;5029735;28;20186;-39
2021/07/31 11:47:00;;;;;;;2.13;1.90;;;20.20;99.90;;;;;;5031998;28;20444;-40
2021/07/31 11:49:25;;;;;;;2.00;1.90;;;20.10;99.90;;;;;;5025548;28;20456;-40
2021/07/31 11:51:53;;;;;;;2.00;1.90;;;20.20;99.90;;;;;;5029122;28;20436;-39
2021/07/31 11:54:19;;;;;;;2.00;1.70;;;20.20;99.90;;;;;;5037287;28;20627;-43
2021/07/31 11:56:46;;;;;;;2.20;1.83;;;20.30;99.90;;;;;;5036039;28;20947;-42
2021/07/31 11:59:12;;;;;;;2.23;2.03;;;20.40;99.90;;;;;;5027049;28;21130;-39
2021/07/31 12:01:45;;;;;;;2.00;1.80;;;20.60;99.90;;;;;;5036254;28;20582;-40
2021/07/31 12:04:11;;;;;;;3.63;2.00;;;20.80;99.90;;;;;;5032443;28;20462;-41
2021/07/31 12:06:44;;;;;;;3.10;1.57;;;20.90;99.90;;;;;;5033609;28;20428;-39
2021/07/31 12:09:27;;;;;;;1.73;1.60;;;20.90;99.90;;;;;;5039126;28;20865;-40
2021/07/31 12:11:57;;;;;;;1.70;1.60;;;20.90;99.90;;;;;;5035402;28;20599;-40
2021/07/31 12:14:30;;;;;;;1.90;1.73;;;20.90;99.90;;;;;;5033788;28;20425;-39
2021/07/31 12:17:17;;;;;;;1.80;1.70;;;20.80;99.90;;;;;;5034050;28;20783;-39
2021/07/31 12:19:49;;;;;;;2.77;2.37;;;20.90;99.90;;;;;;5034496;28;20471;-39
2021/07/31 12:22:18;;;;;;;3.67;1.90;;;20.90;99.90;;;;;;5033005;28;20486;-42
2021/07/31 12:24:47;;;;;;;2.20;2.00;;;21.00;99.90;;;;;;5034687;28;20452;-41
2021/07/31 12:27:13;;;;;;;5.30;2.10;;;21.00;99.90;;;;;;5033415;28;21101;-44
2021/07/31 12:29:42;;;;;;;5.63;2.50;;;21.00;99.90;;;;;;5035011;28;20428;-41
2021/07/31 12:32:22;;;;;;;2.50;2.13;;;21.00;99.90;;;;;;5032623;28;20190;-44
2021/07/31 12:34:48;;;;;;;3.77;1.83;;;21.00;99.90;;;;;;5024434;28;20417;-40
2021/07/31 12:37:14;;;;;;;2.47;2.10;;;20.90;99.90;;;;;;5025400;28;20523;-44
2021/07/31 12:39:40;;;;;;;3.53;1.93;;;20.90;99.90;;;;;;5034181;28;20460;-38
2021/07/31 12:42:06;;;;;;;2.97;2.77;;;20.90;99.90;;;;;;5035877;28;20949;-38
2021/07/31 12:44:33;;;;;;;2.70;2.20;;;20.80;99.90;;;;;;5027292;28;20685;-41
2021/07/31 12:46:58;;;;;;;4.30;2.47;;;20.80;99.90;;;;;;5023865;28;20217;-39
2021/07/31 12:49:24;;;;;;;1.87;1.77;;;20.90;99.90;;;;;;5031562;28;20456;-41